Time;durP1;ratioP1;P1;durP2;ratioP2;P2;SDS_P1;SDS_P2;PMS_P1;PMS_P2;Temp;Humidity;BMP_temperature;BMP_pressure;BME280_temperature;BME280_humidity;BME280_pressure;Samples;Min_cycle;Max_cycle;Signal;HPM_P1;HPM_P2
2023/01/21 00:01:17;;;;;;;62.92;43.33;;;0.00;99.90;;;;;;6210928;23;20112;-83
2023/01/21 00:03:44;;;;;;;65.43;42.65;;;0.00;99.90;;;;;;6212203;23;20094;-83
2023/01/21 00:06:11;;;;;;;69.03;43.80;;;1.20;99.90;;;;;;6211262;23;20021;-82
2023/01/21 00:08:36;;;;;;;63.85;43.35;;;0.00;99.90;;;;;;6210857;23;20055;-82
2023/01/21 00:11:13;;;;;;;68.35;43.47;;;0.00;99.90;;;;;;6211565;23;20016;-83
2023/01/21 00:13:39;;;;;;;66.53;44.17;;;0.40;99.90;;;;;;6186696;23;20083;-83
2023/01/21 00:16:05;;;;;;;64.75;44.65;;;0.00;99.90;;;;;;6212748;23;20009;-83
2023/01/21 00:18:31;;;;;;;64.18;43.55;;;0.00;99.90;;;;;;6211046;23;20099;-83
2023/01/21 00:20:57;;;;;;;67.45;43.85;;;0.00;99.90;;;;;;6210898;23;20071;-83
2023/01/21 00:23:23;;;;;;;68.85;45.45;;;0.00;99.90;;;;;;6210402;23;20020;-83
2023/01/21 00:25:48;;;;;;;63.97;45.00;;;0.00;99.90;;;;;;6212279;23;20075;-83
2023/01/21 00:28:14;;;;;;;66.88;44.35;;;0.00;99.90;;;;;;6211983;23;20021;-83
2023/01/21 00:30:40;;;;;;;63.28;43.35;;;0.00;99.90;;;;;;6212329;23;20079;-83
2023/01/21 00:33:06;;;;;;;65.28;43.15;;;0.10;99.90;;;;;;6212713;23;20011;-83
2023/01/21 00:35:32;;;;;;;68.72;43.63;;;0.00;99.90;;;;;;6212581;23;20009;-83
2023/01/21 00:37:58;;;;;;;70.70;45.03;;;0.00;99.90;;;;;;6210741;23;20051;-83
2023/01/21 00:40:24;;;;;;;68.35;45.05;;;-0.10;99.90;;;;;;6185991;23;20580;-83
2023/01/21 00:42:50;;;;;;;67.65;42.67;;;-0.20;99.90;;;;;;6209920;23;20079;-83
2023/01/21 00:45:15;;;;;;;77.20;46.03;;;-0.30;99.90;;;;;;6210352;23;20052;-83
2023/01/21 00:47:41;;;;;;;71.90;46.85;;;-0.30;99.90;;;;;;6210275;23;20012;-82
2023/01/21 00:50:08;;;;;;;70.28;45.50;;;-0.30;99.90;;;;;;6236499;23;20020;-83
2023/01/21 00:52:33;;;;;;;72.97;44.75;;;-0.40;99.90;;;;;;6210906;23;20016;-83
2023/01/21 00:54:59;;;;;;;72.30;44.17;;;-0.50;99.90;;;;;;6210214;23;20490;-84
2023/01/21 00:57:24;;;;;;;69.72;45.70;;;-0.60;99.90;;;;;;6185192;23;20115;-83
2023/01/21 00:59:50;;;;;;;73.22;45.10;;;0.00;99.90;;;;;;6212832;23;20078;-83
2023/01/21 01:02:16;;;;;;;84.45;47.70;;;-0.70;99.90;;;;;;6212527;23;20451;-83
2023/01/21 01:04:41;;;;;;;84.43;48.55;;;-0.80;99.90;;;;;;6210193;23;20017;-84
2023/01/21 01:07:07;;;;;;;87.45;48.67;;;-0.80;99.90;;;;;;6210385;23;20044;-84
2023/01/21 01:09:33;;;;;;;83.28;47.35;;;-0.90;99.90;;;;;;6210982;23;20511;-82
2023/01/21 01:11:58;;;;;;;74.90;46.00;;;-0.90;99.90;;;;;;6210207;23;20071;-83
2023/01/21 01:14:24;;;;;;;72.38;45.40;;;-1.00;99.90;;;;;;6210017;23;20347;-83
2023/01/21 01:16:49;;;;;;;71.82;45.90;;;-1.10;99.90;;;;;;6210145;23;20024;-82
2023/01/21 01:19:16;;;;;;;78.35;45.72;;;-1.10;99.90;;;;;;6210552;23;20017;-83
2023/01/21 01:21:42;;;;;;;83.32;47.17;;;-1.10;99.90;;;;;;6211944;23;20019;-83
2023/01/21 01:24:07;;;;;;;85.82;47.75;;;-1.20;99.90;;;;;;6211784;23;20009;-83
2023/01/21 01:26:36;;;;;;;86.05;49.05;;;-1.20;99.90;;;;;;6235778;23;20040;-82
2023/01/21 01:29:05;;;;;;;92.25;49.28;;;-1.30;99.90;;;;;;6211125;23;20440;-82
2023/01/21 01:31:31;;;;;;;84.43;47.83;;;-1.30;99.90;;;;;;6212421;23;20363;-82
2023/01/21 01:33:57;;;;;;;97.55;51.25;;;-1.30;99.90;;;;;;6209576;23;20013;-82
2023/01/21 01:36:22;;;;;;;87.97;47.97;;;-1.30;99.90;;;;;;6211999;23;20020;-82
2023/01/21 01:38:49;;;;;;;86.22;49.70;;;-1.30;99.90;;;;;;6210661;23;20019;-83
2023/01/21 01:41:20;;;;;;;82.05;48.00;;;-1.40;99.90;;;;;;6211450;23;20087;-82
2023/01/21 01:43:51;;;;;;;81.20;47.55;;;-1.40;99.90;;;;;;6209563;23;20020;-82
2023/01/21 01:46:17;;;;;;;91.55;50.75;;;-1.40;99.90;;;;;;6210149;23;20028;-82
2023/01/21 01:48:46;;;;;;;87.57;48.53;;;-1.50;99.90;;;;;;6210514;23;20013;-82
2023/01/21 01:51:15;;;;;;;81.05;48.38;;;-1.50;99.90;;;;;;6235721;23;20063;-82
2023/01/21 01:53:43;;;;;;;95.38;52.45;;;-0.90;99.90;;;;;;6211649;23;20340;-82
2023/01/21 01:56:09;;;;;;;96.72;50.25;;;-1.50;99.90;;;;;;6209586;23;20035;-82
2023/01/21 01:58:36;;;;;;;84.50;48.75;;;-1.60;99.90;;;;;;6210054;23;20381;-82
2023/01/21 02:01:02;;;;;;;89.32;51.63;;;-1.60;99.90;;;;;;6211352;23;20095;-82
2023/01/21 02:03:49;;;;;;;98.35;50.83;;;-1.60;99.90;;;;;;6213521;23;20094;-81
2023/01/21 02:06:16;;;;;;;99.18;53.33;;;-1.00;99.90;;;;;;6213584;23;20091;-82
2023/01/21 02:08:44;;;;;;;91.75;50.88;;;-1.60;99.90;;;;;;6211773;23;20457;-82
2023/01/21 02:11:16;;;;;;;98.45;50.85;;;-1.60;99.90;;;;;;6211035;23;20055;-82
2023/01/21 02:13:45;;;;;;;87.70;48.60;;;-1.60;99.90;;;;;;6211314;23;20004;-82
2023/01/21 02:16:40;;;;;;;90.93;49.67;;;-1.70;99.90;;;;;;6212166;23;20152;-81
2023/01/21 02:19:35;;;;;;;86.88;49.20;;;-1.70;99.90;;;;;;6213157;23;20012;-81
2023/01/21 02:22:09;;;;;;;88.82;50.65;;;-1.70;99.90;;;;;;6211628;23;20088;-81
2023/01/21 02:24:59;;;;;;;78.97;46.80;;;-1.70;99.90;;;;;;6212130;23;20062;-82
2023/01/21 02:28:06;;;;;;;84.28;46.97;;;-1.80;99.90;;;;;;6211680;23;20016;-82
2023/01/21 02:31:07;;;;;;;101.53;52.70;;;-1.80;99.90;;;;;;6213205;23;20067;-82
2023/01/21 02:33:59;;;;;;;99.35;52.10;;;-1.80;99.90;;;;;;6211419;23;20017;-81
2023/01/21 02:36:47;;;;;;;86.68;48.72;;;-1.80;99.90;;;;;;6211499;23;20402;-82
2023/01/21 02:39:15;;;;;;;99.35;52.22;;;-1.80;99.90;;;;;;6211306;23;20012;-82
2023/01/21 02:41:50;;;;;;;96.97;52.67;;;-1.90;99.90;;;;;;6213055;23;20012;-82
2023/01/21 02:44:32;;;;;;;89.78;48.20;;;-1.90;99.90;;;;;;6212977;23;20111;-82
2023/01/21 02:47:07;;;;;;;98.88;53.13;;;-1.90;99.90;;;;;;6213195;23;20009;-82
2023/01/21 02:49:44;;;;;;;95.88;52.45;;;-1.90;99.90;;;;;;6213242;23;20344;-81
2023/01/21 02:52:18;;;;;;;99.97;51.88;;;-1.80;99.90;;;;;;6186556;23;20004;-82
2023/01/21 02:54:48;;;;;;;96.43;50.60;;;-1.80;99.90;;;;;;6210479;23;20016;-81
2023/01/21 02:57:19;;;;;;;96.93;51.67;;;-1.90;99.90;;;;;;6186502;23;20400;-82
2023/01/21 02:59:48;;;;;;;93.22;50.35;;;-1.90;99.90;;;;;;6211466;23;20016;-82
2023/01/21 03:02:23;;;;;;;91.05;48.25;;;-1.90;99.90;;;;;;6211392;23;20024;-82
2023/01/21 03:05:09;;;;;;;97.32;50.95;;;-1.90;99.90;;;;;;6211363;23;20272;-82
2023/01/21 03:07:41;;;;;;;94.20;49.22;;;-1.90;99.90;;;;;;6210696;23;20078;-82
2023/01/21 03:10:35;;;;;;;118.93;52.50;;;-0.80;99.90;;;;;;6211237;23;20016;-82
2023/01/21 03:13:08;;;;;;;268.25;62.28;;;-1.90;99.90;;;;;;6213703;23;20363;-82
2023/01/21 03:18:44;;;;;;;165.93;53.83;;;-1.70;99.90;;;;;;6211152;23;20044;-81
2023/01/21 03:21:15;;;;;;;230.07;58.88;;;-1.70;99.90;;;;;;6211263;23;20008;-82
2023/01/21 03:23:46;;;;;;;235.10;55.38;;;-1.70;99.90;;;;;;6210294;23;20009;-82
2023/01/21 03:26:15;;;;;;;202.98;57.33;;;-1.60;99.90;;;;;;6211224;23;20024;-81
2023/01/21 03:28:45;;;;;;;278.23;60.05;;;-1.60;99.90;;;;;;6213552;23;20130;-82
2023/01/21 03:31:19;;;;;;;556.83;78.85;;;-1.60;99.90;;;;;;6186163;23;20052;-82
2023/01/21 03:33:48;;;;;;;336.77;60.63;;;-1.50;99.90;;;;;;6210553;23;20015;-82
2023/01/21 03:36:33;;;;;;;297.90;64.18;;;-1.50;99.90;;;;;;6212652;23;20013;-82
2023/01/21 03:39:06;;;;;;;270.20;60.65;;;-1.50;99.90;;;;;;6212698;23;20432;-82
2023/01/21 03:41:36;;;;;;;213.52;57.15;;;-1.50;99.90;;;;;;6213168;23;20005;-82
2023/01/21 03:44:02;;;;;;;221.40;58.63;;;-1.50;99.90;;;;;;6210502;23;20051;-82
2023/01/21 03:46:44;;;;;;;201.20;57.67;;;-1.30;99.90;;;;;;6210835;23;20083;-81
2023/01/21 03:49:13;;;;;;;153.07;52.92;;;-1.40;99.90;;;;;;6212739;23;20020;-82
2023/01/21 03:51:44;;;;;;;165.00;55.40;;;-1.50;99.90;;;;;;6210055;23;20454;-82
2023/01/21 03:54:09;;;;;;;167.00;57.05;;;-1.40;99.90;;;;;;6235380;23;20083;-82
2023/01/21 03:56:35;;;;;;;146.55;53.55;;;-1.40;99.90;;;;;;6211097;23;20044;-82
2023/01/21 03:59:01;;;;;;;121.28;50.63;;;-1.30;99.90;;;;;;6211125;23;20095;-81
2023/01/21 04:01:26;;;;;;;143.65;53.70;;;-1.30;99.90;;;;;;6212527;23;20012;-82
2023/01/21 04:03:52;;;;;;;130.88;52.50;;;-1.20;99.90;;;;;;6211975;23;20035;-82
2023/01/21 04:06:21;;;;;;;121.95;49.97;;;-1.20;99.90;;;;;;6210114;23;20017;-82
2023/01/21 04:08:47;;;;;;;96.78;46.28;;;-1.20;99.90;;;;;;6210621;23;20016;-82
2023/01/21 04:11:12;;;;;;;110.47;47.95;;;-1.20;99.90;;;;;;6212458;23;20005;-82
2023/01/21 04:13:38;;;;;;;126.85;52.78;;;-1.20;99.90;;;;;;6210127;23;20073;-83
2023/01/21 04:16:04;;;;;;;127.07;53.33;;;-1.20;99.90;;;;;;6210630;23;20020;-82
2023/01/21 04:18:30;;;;;;;108.53;48.03;;;-1.20;99.90;;;;;;6210610;23;20015;-82
2023/01/21 04:20:55;;;;;;;122.15;50.28;;;-1.20;99.90;;;;;;6210035;23;20059;-82
2023/01/21 04:23:21;;;;;;;122.63;52.05;;;0.00;99.90;;;;;;6209415;23;20424;-82
2023/01/21 04:25:48;;;;;;;127.28;54.67;;;-1.20;99.90;;;;;;6210391;23;20016;-82
2023/01/21 04:28:13;;;;;;;113.60;51.70;;;-1.20;99.90;;;;;;6210392;23;20325;-82
2023/01/21 04:30:39;;;;;;;110.35;48.38;;;-1.20;99.90;;;;;;6212288;23;20043;-82
2023/01/21 04:33:05;;;;;;;101.57;47.53;;;-1.20;99.90;;;;;;6209505;23;20013;-82
2023/01/21 04:35:30;;;;;;;96.57;47.88;;;-1.20;99.90;;;;;;6209929;23;20087;-82
2023/01/21 04:37:56;;;;;;;100.80;47.90;;;-1.30;99.90;;;;;;6210243;23;20346;-81
2023/01/21 04:40:22;;;;;;;105.43;49.35;;;-0.20;99.90;;;;;;6210079;23;20016;-82
2023/01/21 04:42:47;;;;;;;95.63;47.70;;;-1.20;99.90;;;;;;6210326;23;20035;-81
2023/01/21 04:45:13;;;;;;;101.25;48.83;;;-0.80;99.90;;;;;;6209370;23;20487;-81
2023/01/21 04:47:43;;;;;;;104.82;49.92;;;-0.80;99.90;;;;;;6210295;23;20391;-82
2023/01/21 04:50:10;;;;;;;95.72;48.53;;;-1.10;99.90;;;;;;6235216;23;20063;-82
2023/01/21 04:52:36;;;;;;;113.25;50.92;;;-1.00;99.90;;;;;;6210030;23;20016;-82
2023/01/21 04:55:02;;;;;;;116.05;50.95;;;-1.00;99.90;;;;;;6209548;23;20092;-82
2023/01/21 04:57:28;;;;;;;113.30;49.45;;;-1.00;99.90;;;;;;6210294;23;20020;-82
2023/01/21 04:59:53;;;;;;;118.57;50.45;;;-0.90;99.90;;;;;;6212355;23;20434;-82
2023/01/21 05:02:19;;;;;;;113.47;49.70;;;-0.90;99.90;;;;;;6212482;23;20008;-82
2023/01/21 05:04:44;;;;;;;98.47;47.03;;;-0.90;99.90;;;;;;6208962;23;20404;-82
2023/01/21 05:07:13;;;;;;;99.10;47.75;;;-0.10;99.90;;;;;;6235491;23;20336;-82
2023/01/21 05:09:39;;;;;;;113.22;49.33;;;-0.80;99.90;;;;;;6210271;23;20081;-82
2023/01/21 05:12:05;;;;;;;108.95;48.47;;;-0.80;99.90;;;;;;6210161;23;20009;-82
2023/01/21 05:14:31;;;;;;;104.78;47.95;;;-0.70;99.90;;;;;;6211782;23;20019;-82
2023/01/21 05:16:57;;;;;;;96.63;45.83;;;-0.70;99.90;;;;;;6212158;23;20040;-82
2023/01/21 05:19:23;;;;;;;105.72;48.03;;;-0.10;99.90;;;;;;6184350;23;20027;-82
2023/01/21 05:21:48;;;;;;;108.95;49.40;;;-0.60;99.90;;;;;;6210313;23;20009;-82
2023/01/21 05:24:14;;;;;;;99.13;47.47;;;-0.60;99.90;;;;;;6209510;23;20017;-82
2023/01/21 05:26:39;;;;;;;103.30;48.88;;;-0.50;99.90;;;;;;6209739;23;20096;-83
2023/01/21 05:29:05;;;;;;;94.40;47.78;;;-0.50;99.90;;;;;;6211667;23;20047;-83
2023/01/21 05:31:31;;;;;;;92.78;47.28;;;-0.50;99.90;;;;;;6211747;23;20349;-83
2023/01/21 05:33:57;;;;;;;103.13;47.67;;;-0.50;99.90;;;;;;6211094;23;20008;-83
2023/01/21 05:36:23;;;;;;;108.35;50.42;;;-0.50;99.90;;;;;;6211556;23;20162;-82
2023/01/21 05:38:49;;;;;;;96.82;46.38;;;-0.10;99.90;;;;;;6186509;23;20012;-83
2023/01/21 05:41:14;;;;;;;107.70;47.90;;;-0.40;99.90;;;;;;6211576;23;20035;-83
2023/01/21 05:43:40;;;;;;;100.80;48.40;;;-0.40;99.90;;;;;;6212562;23;20343;-83
2023/01/21 05:46:06;;;;;;;108.18;48.60;;;-0.40;99.90;;;;;;6211160;23;20024;-83
2023/01/21 05:48:31;;;;;;;97.32;44.88;;;-0.40;99.90;;;;;;6211145;23;20011;-83
2023/01/21 05:50:57;;;;;;;103.68;48.63;;;-0.30;99.90;;;;;;6211870;23;20012;-83
2023/01/21 05:53:24;;;;;;;96.10;47.67;;;-0.30;99.90;;;;;;6210842;23;20020;-83
2023/01/21 05:55:51;;;;;;;102.07;47.10;;;-0.30;99.90;;;;;;6211434;23;20058;-83
2023/01/21 05:58:17;;;;;;;90.40;45.92;;;-0.30;99.90;;;;;;6213336;23;20084;-83
2023/01/21 06:00:43;;;;;;;106.13;48.47;;;-0.30;99.90;;;;;;6211230;23;20051;-83
2023/01/21 06:03:09;;;;;;;102.10;46.80;;;0.70;99.90;;;;;;6210133;23;20347;-83
2023/01/21 06:05:35;;;;;;;92.85;45.67;;;-0.20;99.90;;;;;;6211137;23;20017;-83
2023/01/21 06:08:00;;;;;;;92.72;44.65;;;-0.30;99.90;;;;;;6211397;23;20100;-83
2023/01/21 06:10:26;;;;;;;94.43;47.20;;;-0.30;99.90;;;;;;6213248;23;20012;-83
2023/01/21 06:12:51;;;;;;;91.50;45.42;;;-0.30;99.90;;;;;;6212142;23;20005;-83
2023/01/21 06:15:18;;;;;;;106.13;46.55;;;-0.30;99.90;;;;;;6211207;23;20075;-83
2023/01/21 06:17:43;;;;;;;95.65;46.83;;;-0.30;99.90;;;;;;6210861;23;20054;-83
2023/01/21 06:20:09;;;;;;;106.20;48.78;;;-0.30;99.90;;;;;;6211246;23;20056;-83
2023/01/21 06:22:35;;;;;;;95.28;45.40;;;-0.30;99.90;;;;;;6211108;23;20019;-83
2023/01/21 06:25:01;;;;;;;95.75;45.65;;;-0.30;99.90;;;;;;6210816;23;20103;-83
2023/01/21 06:27:26;;;;;;;92.43;46.08;;;-0.30;99.90;;;;;;6212994;23;20452;-83
2023/01/21 06:29:52;;;;;;;96.70;46.47;;;-0.10;99.90;;;;;;6211326;23;20343;-83
2023/01/21 06:32:18;;;;;;;91.32;45.42;;;0.60;99.90;;;;;;6185517;23;20009;-83
2023/01/21 06:34:43;;;;;;;91.60;46.70;;;0.50;99.90;;;;;;6210534;23;20044;-83
2023/01/21 06:37:09;;;;;;;94.88;48.13;;;-0.40;99.90;;;;;;6212603;23;20013;-84
2023/01/21 06:39:34;;;;;;;96.47;48.13;;;-0.40;99.90;;;;;;6213692;23;20074;-83
2023/01/21 06:42:00;;;;;;;99.47;48.97;;;0.70;99.90;;;;;;6213697;23;20016;-83
2023/01/21 06:44:26;;;;;;;99.93;49.63;;;-0.40;99.90;;;;;;6213674;23;20016;-82
2023/01/21 06:46:51;;;;;;;104.63;49.72;;;0.70;99.90;;;;;;6213091;23;20011;-83
2023/01/21 06:49:17;;;;;;;106.28;50.80;;;-0.40;99.90;;;;;;6210639;23;20387;-83
2023/01/21 06:51:42;;;;;;;92.70;48.85;;;-0.40;99.90;;;;;;6212565;23;20017;-83
2023/01/21 06:54:09;;;;;;;92.45;49.83;;;-0.40;99.90;;;;;;6210186;23;20012;-83
2023/01/21 06:56:35;;;;;;;110.05;53.40;;;0.20;99.90;;;;;;6185538;23;20012;-84
2023/01/21 06:59:02;;;;;;;94.18;48.47;;;-0.40;99.90;;;;;;6210921;23;20031;-84
2023/01/21 07:01:28;;;;;;;99.75;49.05;;;-0.40;99.90;;;;;;6210159;23;20104;-82
2023/01/21 07:03:54;;;;;;;102.50;51.10;;;-0.40;99.90;;;;;;6209858;23;20020;-83
2023/01/21 07:06:21;;;;;;;99.25;49.55;;;-0.40;99.90;;;;;;6210585;23;20331;-83
2023/01/21 07:08:47;;;;;;;89.15;46.53;;;-0.40;99.90;;;;;;6210452;23;20017;-83
2023/01/21 07:11:13;;;;;;;103.95;49.80;;;-0.40;99.90;;;;;;6211023;23;20004;-83
2023/01/21 07:13:38;;;;;;;107.05;52.05;;;-0.40;99.90;;;;;;6210158;23;20359;-83
2023/01/21 07:16:04;;;;;;;93.10;49.83;;;-0.50;99.90;;;;;;6210230;23;20016;-83
2023/01/21 07:18:30;;;;;;;105.53;52.53;;;-0.50;99.90;;;;;;6210720;23;20444;-81
2023/01/21 07:20:56;;;;;;;104.38;50.88;;;-0.50;99.90;;;;;;6210307;23;20102;-87
2023/01/21 07:23:22;;;;;;;97.22;49.10;;;0.20;99.90;;;;;;6210539;23;20012;-83
2023/01/21 07:25:47;;;;;;;90.35;48.72;;;-0.60;99.90;;;;;;6209929;23;20012;-85
2023/01/21 07:28:16;;;;;;;105.97;54.00;;;-0.60;99.90;;;;;;6211626;23;20078;-84
2023/01/21 07:30:41;;;;;;;93.97;50.28;;;-0.70;99.90;;;;;;6212570;23;20015;-85
2023/01/21 07:33:08;;;;;;;97.40;51.03;;;-0.70;99.90;;;;;;6210239;23;20012;-84
2023/01/21 07:35:34;;;;;;;107.15;52.70;;;-0.80;99.90;;;;;;6211035;23;20026;-84
2023/01/21 07:38:00;;;;;;;110.65;52.85;;;-0.90;99.90;;;;;;6210686;23;20048;-84
2023/01/21 07:40:25;;;;;;;102.75;51.80;;;-0.90;99.90;;;;;;6211934;23;20379;-84
2023/01/21 07:42:52;;;;;;;105.50;53.10;;;-0.90;99.90;;;;;;6208443;23;20024;-84
2023/01/21 07:45:19;;;;;;;106.75;53.42;;;-1.00;99.90;;;;;;6212118;23;20023;-84
2023/01/21 07:47:45;;;;;;;107.68;53.85;;;-1.00;99.90;;;;;;6212183;23;20083;-84
2023/01/21 07:50:11;;;;;;;101.15;50.15;;;-1.10;99.90;;;;;;6235828;23;20051;-84
2023/01/21 07:52:36;;;;;;;106.15;53.33;;;-1.20;99.90;;;;;;6209733;23;20016;-84
2023/01/21 07:55:03;;;;;;;113.20;52.92;;;-1.20;99.90;;;;;;6210452;23;20012;-84
2023/01/21 07:57:28;;;;;;;98.10;51.22;;;-1.20;99.90;;;;;;6209422;23;20012;-84
2023/01/21 07:59:54;;;;;;;103.43;52.72;;;-1.20;99.90;;;;;;6210141;23;20020;-84
2023/01/21 08:02:20;;;;;;;108.70;52.17;;;-0.50;99.90;;;;;;6209882;23;20034;-84
2023/01/21 08:04:45;;;;;;;111.72;54.50;;;-1.30;99.90;;;;;;6209465;23;20066;-84
2023/01/21 08:07:11;;;;;;;112.28;55.03;;;-1.30;99.90;;;;;;6212127;23;20012;-84
2023/01/21 08:09:37;;;;;;;111.95;55.20;;;-1.40;99.90;;;;;;6209997;23;20115;-85
2023/01/21 08:12:04;;;;;;;134.52;59.80;;;-1.30;99.90;;;;;;6209847;23;20498;-84
2023/01/21 08:14:30;;;;;;;117.05;55.42;;;-1.30;99.90;;;;;;6209542;23;20070;-84
2023/01/21 08:16:56;;;;;;;109.32;57.17;;;-1.30;99.90;;;;;;6209997;23;20012;-84
2023/01/21 08:19:22;;;;;;;114.25;56.65;;;-1.20;99.90;;;;;;6209855;23;20024;-84
2023/01/21 08:21:47;;;;;;;120.32;57.97;;;-1.20;99.90;;;;;;6211998;23;20023;-84
2023/01/21 08:24:13;;;;;;;134.30;61.83;;;-1.20;99.90;;;;;;6209600;23;20021;-84
2023/01/21 08:26:38;;;;;;;122.50;58.55;;;-1.10;99.90;;;;;;6211401;23;20013;-84
2023/01/21 08:29:04;;;;;;;116.05;58.22;;;-1.10;99.90;;;;;;6210430;23;20304;-84
2023/01/21 08:31:30;;;;;;;125.22;61.75;;;-1.10;99.90;;;;;;6235717;23;20120;-84
2023/01/21 08:33:56;;;;;;;132.68;63.78;;;-1.00;99.90;;;;;;6209190;23;20068;-84
2023/01/21 08:36:22;;;;;;;133.38;63.67;;;-1.00;99.90;;;;;;6209037;23;20008;-83
2023/01/21 08:38:57;;;;;;;145.00;65.80;;;-1.00;99.90;;;;;;6207915;23;20067;-84
2023/01/21 08:41:23;;;;;;;132.38;64.97;;;-1.00;99.90;;;;;;6209192;23;20047;-84
2023/01/21 08:43:49;;;;;;;143.55;67.13;;;-0.90;99.90;;;;;;6210970;23;20104;-84
2023/01/21 08:46:15;;;;;;;134.98;63.33;;;-0.90;99.90;;;;;;6209336;23;20016;-85
2023/01/21 08:48:40;;;;;;;126.40;61.80;;;-0.90;99.90;;;;;;6211194;23;20015;-84
2023/01/21 08:51:06;;;;;;;125.75;60.92;;;-0.90;99.90;;;;;;6209073;23;20343;-84
2023/01/21 08:53:31;;;;;;;114.60;60.35;;;-0.90;99.90;;;;;;6211071;23;20005;-84
2023/01/21 08:55:59;;;;;;;114.70;59.80;;;-0.80;99.90;;;;;;6208531;23;20384;-85
2023/01/21 08:58:28;;;;;;;125.88;63.92;;;-0.70;99.90;;;;;;6210294;23;20028;-85
2023/01/21 09:00:54;;;;;;;123.53;63.35;;;-0.60;99.90;;;;;;6184539;23;20066;-85
2023/01/21 09:03:20;;;;;;;130.40;66.85;;;0.10;99.90;;;;;;6211003;23;20047;-85
2023/01/21 09:05:46;;;;;;;119.72;60.70;;;-0.40;99.90;;;;;;6211578;23;20013;-85
2023/01/21 09:08:12;;;;;;;117.85;60.40;;;-0.40;99.90;;;;;;6211660;23;20309;-85
2023/01/21 09:13:21;;;;;;;112.70;60.05;;;-0.30;99.90;;;;;;6211203;23;20016;-84
2023/01/21 09:15:47;;;;;;;106.22;57.92;;;-0.20;99.90;;;;;;6211683;23;20020;-85
2023/01/21 09:18:13;;;;;;;108.03;57.88;;;-0.30;99.90;;;;;;6213469;23;20028;-85
2023/01/21 09:20:39;;;;;;;114.25;60.03;;;-0.20;99.90;;;;;;6211163;23;20364;-87
2023/01/21 09:23:22;;;;;;;107.20;59.42;;;-0.30;99.90;;;;;;6213067;23;20055;-84
2023/01/21 09:26:09;;;;;;;;;;;-0.30;99.90;;;;;;6185860;23;20017;-84
2023/01/21 09:28:38;;;;;;;106.18;59.60;;;-0.30;99.90;;;;;;6213400;23;20285;-83
2023/01/21 09:31:06;;;;;;;115.25;60.10;;;-0.30;99.90;;;;;;6211083;23;20495;-83
2023/01/21 09:33:34;;;;;;;117.95;61.03;;;-0.30;99.90;;;;;;6210514;23;20015;-83
2023/01/21 09:36:03;;;;;;;104.20;57.97;;;-0.30;99.90;;;;;;6212424;23;20040;-86
2023/01/21 09:38:29;;;;;;;110.35;59.60;;;-0.30;99.90;;;;;;6211720;23;20017;-85
2023/01/21 09:40:59;;;;;;;109.95;58.67;;;-0.30;99.90;;;;;;6184566;23;20027;-85
2023/01/21 09:43:33;;;;;;;115.53;61.20;;;-0.20;99.90;;;;;;6212395;23;20084;-86
2023/01/21 09:46:01;;;;;;;113.05;60.72;;;-0.20;99.90;;;;;;6211346;23;20448;-85
2023/01/21 09:48:40;;;;;;;119.95;59.95;;;-0.20;99.90;;;;;;6210758;23;20036;-86
2023/01/21 09:51:15;;;;;;;113.43;60.83;;;-0.20;99.90;;;;;;6211437;23;20020;-86
2023/01/21 09:53:55;;;;;;;120.82;60.60;;;-0.20;99.90;;;;;;6185102;23;20009;-85
2023/01/21 09:56:29;;;;;;;120.93;62.15;;;-0.20;99.90;;;;;;6210364;23;20032;-84
2023/01/21 09:59:38;;;;;;;126.25;63.78;;;-0.20;99.90;;;;;;6210915;23;20055;-85
2023/01/21 10:02:15;;;;;;;109.78;57.05;;;-0.10;99.90;;;;;;6209668;23;20028;-85
2023/01/21 10:04:54;;;;;;;120.38;64.07;;;-0.10;99.90;;;;;;6211562;23;20023;-85
2023/01/21 10:07:33;;;;;;;92.65;54.60;;;0.00;99.90;;;;;;6210670;23;20008;-86
2023/01/21 10:10:09;;;;;;;93.20;52.92;;;0.00;99.90;;;;;;6212089;23;20394;-86
2023/01/21 10:12:59;;;;;;;95.35;55.25;;;0.10;99.90;;;;;;6235533;23;20055;-86
2023/01/21 10:15:42;;;;;;;106.38;56.83;;;0.10;99.90;;;;;;6210450;23;20056;-85
2023/01/21 10:18:16;;;;;;;92.57;54.35;;;0.20;99.90;;;;;;6210950;23;20051;-86
2023/01/21 10:20:50;;;;;;;89.20;52.08;;;0.30;99.90;;;;;;6210369;23;20067;-86
2023/01/21 10:23:30;;;;;;;87.63;51.35;;;0.30;99.90;;;;;;6209665;23;20013;-85
2023/01/21 10:26:00;;;;;;;86.28;51.30;;;0.40;99.90;;;;;;6212582;23;20009;-91
2023/01/21 10:28:29;;;;;;;83.30;50.70;;;0.40;99.90;;;;;;6212553;23;20059;-86
2023/01/21 10:31:01;;;;;;;82.40;49.95;;;0.50;99.90;;;;;;6213747;23;20035;-85
2023/01/21 10:33:31;;;;;;;90.18;52.40;;;0.60;99.90;;;;;;6210521;23;20040;-85
2023/01/21 10:36:26;;;;;;;80.95;51.28;;;0.70;99.90;;;;;;6210644;23;20027;-86
2023/01/21 10:38:54;;;;;;;85.82;50.17;;;0.70;99.90;;;;;;6210713;23;20104;-86
2023/01/21 10:41:22;;;;;;;82.05;50.72;;;0.80;99.90;;;;;;6210991;23;20019;-86
2023/01/21 10:44:06;;;;;;;80.10;49.80;;;0.80;99.90;;;;;;6210159;23;20024;-87
2023/01/21 10:46:57;;;;;;;76.53;49.10;;;0.80;99.90;;;;;;6185672;23;20204;-86
2023/01/21 10:49:43;;;;;;;87.07;51.05;;;0.90;99.90;;;;;;6212502;23;20012;-87
2023/01/21 10:52:14;;;;;;;79.43;49.75;;;0.90;99.90;;;;;;6210358;23;20040;-87
2023/01/21 10:54:55;;;;;;;72.97;48.90;;;1.10;99.90;;;;;;6210710;23;20066;-87
2023/01/21 10:57:31;;;;;;;77.32;50.15;;;1.10;99.90;;;;;;6212057;23;20012;-85
2023/01/21 10:59:59;;;;;;;75.18;49.53;;;1.20;99.90;;;;;;6211115;23;20016;-87
2023/01/21 11:02:32;;;;;;;74.78;49.15;;;1.20;99.90;;;;;;6209211;23;20083;-86
2023/01/21 11:05:02;;;;;;;74.40;48.08;;;1.30;99.90;;;;;;6235760;23;20012;-86
2023/01/21 11:07:33;;;;;;;70.20;47.55;;;1.40;99.90;;;;;;6211126;23;20019;-87
2023/01/21 11:10:01;;;;;;;65.97;46.58;;;1.40;99.90;;;;;;6211026;23;20008;-86
2023/01/21 11:12:26;;;;;;;73.57;47.75;;;1.50;99.90;;;;;;6209703;23;20080;-86
2023/01/21 11:15:14;;;;;;;65.50;43.85;;;1.50;99.90;;;;;;6186873;23;20044;-87
2023/01/21 11:17:42;;;;;;;69.95;45.72;;;1.60;99.90;;;;;;6211408;23;20067;-86
2023/01/21 11:20:22;;;;;;;67.82;46.83;;;1.60;99.90;;;;;;6210765;23;20008;-86
2023/01/21 11:22:49;;;;;;;62.80;43.88;;;1.70;99.90;;;;;;6209674;23;20082;-86
2023/01/21 11:25:42;;;;;;;58.58;42.75;;;1.70;99.90;;;;;;6210247;23;20044;-86
2023/01/21 11:28:25;;;;;;;60.53;42.13;;;1.80;99.90;;;;;;6185024;23;20019;-85
2023/01/21 11:31:11;;;;;;;55.95;41.38;;;1.90;99.90;;;;;;6210332;23;20009;-87
2023/01/21 11:33:37;;;;;;;47.88;36.45;;;2.00;99.90;;;;;;6209573;23;20013;-86
2023/01/21 11:36:20;;;;;;;52.92;39.17;;;2.00;99.90;;;;;;6210063;23;20320;-86
2023/01/21 11:38:58;;;;;;;47.30;35.75;;;2.10;99.90;;;;;;6212034;23;20017;-85
2023/01/21 11:41:24;;;;;;;48.85;36.60;;;2.10;99.90;;;;;;6211626;23;20013;-85
2023/01/21 11:44:15;;;;;;;47.78;33.92;;;2.20;99.90;;;;;;6210471;23;20087;-88
2023/01/21 11:46:41;;;;;;;39.72;31.98;;;2.30;99.90;;;;;;6209954;23;20013;-86
2023/01/21 11:49:06;;;;;;;38.97;30.63;;;2.20;99.90;;;;;;6209964;23;20603;-86
2023/01/21 11:51:33;;;;;;;42.35;30.35;;;2.30;99.90;;;;;;6184149;23;20020;-86
2023/01/21 11:54:23;;;;;;;34.55;26.52;;;2.30;99.90;;;;;;6209486;23;20340;-87
2023/01/21 11:57:00;;;;;;;36.42;28.23;;;2.40;99.90;;;;;;6191426;23;20009;-85
2023/01/21 11:59:28;;;;;;;37.58;28.73;;;2.40;99.90;;;;;;6210201;23;20019;-87
2023/01/21 12:02:04;;;;;;;33.47;26.55;;;2.40;99.90;;;;;;6210194;23;20012;-86
2023/01/21 12:04:31;;;;;;;34.75;25.48;;;2.50;99.90;;;;;;6183739;23;20008;-85
2023/01/21 12:06:59;;;;;;;32.90;25.48;;;2.60;99.90;;;;;;6184911;23;20032;-86
2023/01/21 12:09:27;;;;;;;29.42;22.42;;;2.60;99.90;;;;;;6209965;23;20136;-87
2023/01/21 12:12:18;;;;;;;27.83;22.27;;;2.60;99.90;;;;;;6210607;23;20130;-86
2023/01/21 12:14:54;;;;;;;29.23;22.75;;;2.70;99.90;;;;;;6210045;23;20017;-86
2023/01/21 12:17:41;;;;;;;28.73;22.85;;;2.70;99.90;;;;;;6209608;23;20012;-86
2023/01/21 12:20:19;;;;;;;29.92;23.10;;;2.70;99.90;;;;;;6211433;23;20098;-86
2023/01/21 12:22:51;;;;;;;31.38;23.95;;;2.70;99.90;;;;;;6184613;23;20181;-86
2023/01/21 12:25:21;;;;;;;26.08;19.80;;;2.80;99.90;;;;;;6209848;23;20020;-87
2023/01/21 12:28:05;;;;;;;24.55;19.05;;;2.80;99.90;;;;;;6184764;23;20467;-85
2023/01/21 12:30:47;;;;;;;23.35;18.92;;;2.80;99.90;;;;;;6210088;23;20454;-85
2023/01/21 12:33:34;;;;;;;25.17;19.05;;;2.80;99.90;;;;;;6209016;23;20082;-85
2023/01/21 12:36:15;;;;;;;23.92;18.02;;;2.80;99.90;;;;;;6210201;23;20016;-86
2023/01/21 12:39:10;;;;;;;18.67;15.82;;;2.80;99.90;;;;;;6209954;23;20348;-86
2023/01/21 12:41:38;;;;;;;19.95;15.23;;;2.80;99.90;;;;;;6185721;23;20071;-87
2023/01/21 12:44:26;;;;;;;17.05;14.55;;;3.50;99.90;;;;;;6208744;23;20017;-87
2023/01/21 12:46:57;;;;;;;18.40;14.52;;;2.90;99.90;;;;;;6210637;23;20075;-88